Time;durP1;ratioP1;P1;durP2;ratioP2;P2;SDS_P1;SDS_P2;PMS_P1;PMS_P2;Temp;Humidity;BMP_temperature;BMP_pressure;BME280_temperature;BME280_humidity;BME280_pressure;Samples;Min_cycle;Max_cycle;Signal;HPM_P1;HPM_P2
2022/11/06 05:32:59;;;;;;;31.95;16.90;;;;;;;1.91;61.74;100836.03;6163281;22;1839500;-90
2022/11/06 05:35:30;;;;;;;28.40;17.17;;;;;;;1.51;61.63;100760.00;6214107;22;20035;-94
2022/11/06 05:37:58;;;;;;;23.98;13.98;;;;;;;1.75;61.48;100794.22;6205669;22;20038;-91
2022/11/06 05:40:25;;;;;;;21.33;11.30;;;;;;;1.68;61.59;100790.75;6278394;22;20360;-91
2022/11/06 05:42:51;;;;;;;20.90;11.45;;;;;;;1.71;61.64;100814.59;6219900;22;20073;-88
2022/11/06 05:45:18;;;;;;;18.08;11.48;;;;;;;1.65;61.80;100808.19;6187575;22;20047;-89
2022/11/06 05:47:44;;;;;;;18.17;11.77;;;;;;;1.85;61.79;100835.03;6213175;22;20020;-87
2022/11/06 05:50:11;;;;;;;20.17;12.05;;;;;;;1.73;61.61;100822.47;6232323;22;20107;-86
2022/11/06 05:52:38;;;;;;;21.50;11.40;;;;;;;1.57;61.79;100800.38;6261880;22;20019;-87
2022/11/06 05:55:05;;;;;;;;;;;;;;;1.95;61.82;100849.88;6262054;22;20019;-82
2022/11/06 05:57:31;;;;;;;15.85;9.80;;;;;;;1.92;61.57;100859.28;6184081;22;19922;-84
2022/11/06 05:59:58;;;;;;;16.83;9.93;;;;;;;1.83;61.87;100842.50;6211661;22;20611;-87
2022/11/06 06:02:28;;;;;;;18.40;10.88;;;;;;;1.88;61.98;100836.44;6242342;22;20254;-92
2022/11/06 06:04:55;;;;;;;15.77;10.32;;;;;;;1.69;61.59;100787.03;6214930;22;20016;-87
2022/11/06 06:07:21;;;;;;;19.20;10.10;;;;;;;1.93;62.04;100828.56;6269723;22;20030;-86
2022/11/06 06:09:56;;;;;;;17.58;10.10;;;;;;;2.14;61.65;100843.53;6237317;22;20022;-87
2022/11/06 06:12:25;;;;;;;20.73;10.10;;;;;;;2.05;61.31;100848.38;6188001;22;20026;-92
2022/11/06 06:14:54;;;;;;;20.67;9.73;;;;;;;1.84;60.88;100795.63;6265526;22;20020;-90
2022/11/06 06:17:21;;;;;;;15.95;10.15;;;;;;;1.95;61.47;100831.00;6189081;22;20110;-90
2022/11/06 06:19:59;;;;;;;17.58;9.98;;;;;;;2.20;61.50;100841.84;6213093;22;20020;-89
2022/11/06 06:22:25;;;;;;;17.55;9.75;;;;;;;1.97;61.64;100816.28;6216417;22;20024;-88
2022/11/06 06:24:55;;;;;;;18.67;9.57;;;;;;;2.16;61.23;100835.22;6189690;22;20133;-89
2022/11/06 06:27:21;;;;;;;15.77;9.70;;;;;;;1.88;61.25;100774.44;6276781;22;20099;-87
2022/11/06 06:29:47;;;;;;;21.13;11.65;;;;;;;2.17;60.96;100818.81;6277596;22;20022;-89
2022/11/06 06:32:14;;;;;;;21.17;10.90;;;;;;;1.93;61.01;100788.09;6226328;22;20034;-90
2022/11/06 06:34:40;;;;;;;24.83;13.25;;;;;;;2.12;60.85;100807.88;6200346;22;20020;-88
2022/11/06 06:37:08;;;;;;;39.22;17.92;;;;;;;2.18;60.75;100814.22;6250247;22;20015;-90
2022/11/06 06:39:33;;;;;;;;;;;;;;;2.24;61.03;100837.63;6201543;22;20325;-87
2022/11/06 06:42:00;;;;;;;19.30;10.20;;;;;;;2.22;61.34;100843.28;6252432;22;19998;-87
2022/11/06 07:18:24;;;;;;;14.38;9.82;;;;;;;2.27;60.62;100773.25;5158056;27;20137;-92
2022/11/06 07:20:51;;;;;;;13.80;8.95;;;;;;;2.52;60.52;100804.81;5101644;28;20042;-92
2022/11/06 07:23:20;;;;;;;18.42;10.02;;;;;;;2.45;60.58;100822.91;5103871;28;20035;-91
2022/11/06 07:25:52;;;;;;;17.55;10.30;;;;;;;2.50;60.94;100839.28;5122635;28;20055;-92
2022/11/06 07:28:19;;;;;;;12.75;8.63;;;;;;;2.11;60.59;100788.13;5101853;28;20084;-90
2022/11/06 07:30:48;;;;;;;18.30;9.63;;;;;;;2.25;60.03;100782.63;5097652;28;20352;-92
2022/11/06 07:33:14;;;;;;;16.17;9.25;;;;;;;2.14;59.68;100756.38;5083748;28;20134;-94
2022/11/06 07:35:41;;;;;;;14.32;8.07;;;;;;;2.35;60.29;100832.34;5103898;28;20124;-92
2022/11/06 07:38:08;;;;;;;16.85;8.85;;;;;;;1.79;61.14;100783.88;5128003;28;20044;-90
2022/11/06 07:40:35;;;;;;;20.20;10.53;;;;;;;1.91;61.48;100779.38;5120289;27;20047;-92
2022/11/06 07:45:40;;;;;;;20.40;11.27;;;;;;;2.10;61.17;100801.84;5154076;27;20035;-92
2022/11/06 07:48:51;;;;;;;15.82;10.50;;;;;;;1.90;61.14;100758.06;5130089;27;20088;-91
2022/11/06 07:51:18;;;;;;;25.40;14.10;;;;;;;2.32;60.93;100794.19;5137310;28;20120;-90
2022/11/06 07:53:53;;;;;;;20.35;11.18;;;;;;;2.48;60.92;100831.38;5120823;28;20044;-90
2022/11/06 07:56:19;;;;;;;22.08;13.15;;;;;;;2.38;61.45;100817.56;5088584;28;20080;-92
2022/11/06 07:58:46;;;;;;;24.33;10.98;;;;;;;2.31;60.95;100785.25;5069099;28;20051;-91
2022/11/06 08:01:36;;;;;;;19.63;9.50;;;;;;;2.05;60.74;100761.22;5084794;28;20108;-94
2022/11/06 08:04:11;;;;;;;17.92;9.77;;;;;;;2.21;61.15;100803.00;5039732;28;20045;-91
2022/11/06 08:06:38;;;;;;;18.75;10.43;;;;;;;2.02;60.86;100757.13;5027387;28;20056;-93
2022/11/06 08:09:10;;;;;;;18.35;10.38;;;;;;;2.39;61.23;100824.66;5059900;28;20065;-94
2022/11/06 08:11:41;;;;;;;24.25;10.73;;;;;;;2.19;61.06;100832.91;5025055;28;20080;-91
2022/11/06 08:14:10;;;;;;;16.90;10.05;;;;;;;1.93;61.04;100788.09;5010305;28;20045;-93
2022/11/06 08:16:38;;;;;;;19.42;12.00;;;;;;;2.04;61.48;100808.13;5041775;28;20043;-91
2022/11/06 08:19:10;;;;;;;18.35;10.45;;;;;;;2.05;61.09;100807.06;5008087;28;20058;-91
2022/11/06 08:21:40;;;;;;;19.27;10.88;;;;;;;2.05;61.21;100797.13;5021537;28;20046;-91
2022/11/06 08:24:09;;;;;;;18.80;10.10;;;;;;;1.91;61.24;100792.88;4985464;28;20022;-91
2022/11/06 08:26:38;;;;;;;19.50;9.88;;;;;;;2.11;61.10;100800.81;4988663;28;20082;-91
2022/11/06 08:29:04;;;;;;;20.92;12.30;;;;;;;2.03;60.60;100780.34;5022396;28;20041;-93
2022/11/06 08:31:32;;;;;;;22.45;11.07;;;;;;;1.84;60.63;100782.13;5020362;28;20041;-93
2022/11/06 08:34:01;;;;;;;17.65;10.75;;;;;;;1.74;61.26;100762.09;5022342;28;20049;-92
2022/11/06 08:36:29;;;;;;;15.75;9.40;;;;;;;2.15;60.88;100837.06;5046332;28;20159;-93
2022/11/06 08:38:58;;;;;;;16.27;10.07;;;;;;;1.87;61.20;100814.06;4995309;28;20068;-91
2022/11/06 08:41:25;;;;;;;19.10;10.15;;;;;;;1.44;61.53;100751.94;5064215;28;20043;-92
2022/11/06 08:43:53;;;;;;;22.13;11.30;;;;;;;2.00;61.38;100845.50;5085585;28;20042;-91
2022/11/06 08:46:19;;;;;;;16.67;10.52;;;;;;;1.94;61.47;100840.16;5086519;28;20035;-92
2022/11/06 08:48:48;;;;;;;29.92;12.77;;;;;;;2.03;61.74;100842.38;5081695;28;20039;-92
2022/11/06 08:51:16;;;;;;;20.55;11.20;;;;;;;1.71;61.60;100800.28;5117473;28;20209;-92
2022/11/06 08:53:47;;;;;;;21.70;10.68;;;;;;;1.44;61.83;100738.47;5080033;28;20074;-92
2022/11/06 08:56:13;;;;;;;17.05;10.30;;;;;;;1.72;61.93;100793.84;5074635;28;20066;-94
2022/11/06 08:58:41;;;;;;;;;;;;;;;1.98;61.84;100825.19;5094100;28;20032;-90
2022/11/06 09:01:08;;;;;;;19.73;11.68;;;;;;;1.78;61.76;100758.75;5057585;28;19923;-92
2022/11/06 09:03:37;;;;;;;20.47;12.03;;;;;;;2.11;61.91;100825.06;5092641;28;20048;-90
2022/11/06 09:06:10;;;;;;;22.52;12.68;;;;;;;1.60;61.89;100737.94;5096174;28;20455;-91
2022/11/06 09:08:36;;;;;;;27.48;13.95;;;;;;;2.03;61.52;100763.34;5096339;28;20518;-92
2022/11/06 09:11:06;;;;;;;21.00;12.07;;;;;;;2.43;60.67;100798.84;5092330;28;20036;-91
2022/11/06 09:13:36;;;;;;;21.38;12.57;;;;;;;2.52;60.67;100813.72;5075153;28;20043;-94
2022/11/06 09:16:02;;;;;;;21.42;11.70;;;;;;;2.18;60.70;100781.84;5092154;28;20071;-93
2022/11/06 09:18:36;;;;;;;28.15;12.85;;;;;;;2.10;60.48;100783.78;5074437;28;20047;-93
2022/11/06 09:21:06;;;;;;;19.52;12.63;;;;;;;2.40;61.01;100814.66;5110140;28;20035;-94
2022/11/06 09:23:32;;;;;;;23.67;13.03;;;;;;;2.30;60.43;100778.22;5091813;28;20040;-94
2022/11/06 09:26:07;;;;;;;27.60;14.70;;;;;;;2.37;60.60;100785.44;5123554;28;20069;-92
2022/11/06 09:28:35;;;;;;;38.13;15.98;;;;;;;1.90;60.38;100723.81;5077954;28;20040;-91
2022/11/06 09:31:02;;;;;;;31.73;14.05;;;;;;;2.02;60.55;100726.59;5083833;28;20040;-93
2022/11/06 09:33:30;;;;;;;25.83;14.32;;;;;;;2.08;60.39;100750.00;5087763;28;20070;-92
2022/11/06 09:35:58;;;;;;;27.08;13.45;;;;;;;2.10;60.39;100777.56;5128129;28;20092;-88
2022/11/06 09:38:24;;;;;;;23.85;13.07;;;;;;;2.08;61.21;100777.78;5109046;28;20047;-91
2022/11/06 09:41:24;;;;;;;23.30;14.10;;;;;;;1.72;60.64;100718.34;5112890;28;20121;-93
2022/11/06 09:44:21;;;;;;;22.52;12.75;;;;;;;1.81;60.59;100744.81;5118381;28;20081;-92
2022/11/06 09:46:52;;;;;;;22.33;12.57;;;;;;;1.90;60.71;100731.09;5080628;28;20052;-93
2022/11/06 09:49:42;;;;;;;19.85;11.85;;;;;;;2.23;61.48;100798.22;5057537;28;20064;-92
2022/11/06 09:52:21;;;;;;;22.88;12.65;;;;;;;1.59;61.17;100677.00;5075167;28;20050;-89
2022/11/06 09:54:53;;;;;;;23.52;13.45;;;;;;;2.08;61.19;100745.41;5062203;28;20051;-91
2022/11/06 09:57:39;;;;;;;24.73;12.82;;;;;;;2.07;61.05;100751.03;5073357;28;20094;-90
2022/11/06 10:00:12;;;;;;;30.23;14.98;;;;;;;1.84;60.83;100706.63;5046460;28;20024;-91
2022/11/06 10:02:55;;;;;;;36.10;15.82;;;;;;;2.31;61.19;100777.16;5036371;28;20059;-92
2022/11/06 10:05:36;;;;;;;43.60;21.33;;;;;;;1.93;61.23;100712.59;5021079;28;20041;-93
2022/11/06 10:08:06;;;;;;;31.58;12.43;;;;;;;1.98;61.20;100742.41;5030818;28;20574;-95
2022/11/06 10:10:40;;;;;;;120.20;53.42;;;;;;;2.30;61.35;100778.22;5011230;28;20569;-93
2022/11/06 10:13:53;;;;;;;38.72;21.98;;;;;;;2.30;61.15;100761.19;5025623;28;20144;-92
2022/11/06 10:16:39;;;;;;;209.43;99.25;;;;;;;2.49;61.00;100773.69;5024627;28;20074;-90
2022/11/06 10:19:37;;;;;;;140.80;58.85;;;;;;;2.52;60.64;100769.72;5004099;28;20127;-91
2022/11/06 10:22:34;;;;;;;131.30;60.28;;;;;;;2.48;60.59;100745.00;4985685;28;20042;-90
2022/11/06 10:25:49;;;;;;;24.58;14.80;;;;;;;2.14;60.89;100730.22;4980311;28;20077;-93
2022/11/06 10:28:28;;;;;;;;;;;;;;;2.40;60.87;100766.91;4944662;28;20073;-90
2022/11/06 10:31:25;;;;;;;21.98;11.90;;;;;;;2.07;60.73;100722.19;4976831;28;19944;-92
2022/11/06 10:34:06;;;;;;;133.55;45.97;;;;;;;2.23;61.10;100766.66;5008966;28;20021;-92
2022/11/06 10:36:56;;;;;;;92.78;33.80;;;;;;;2.13;61.49;100752.03;5014552;28;20050;-93
2022/11/06 10:39:30;;;;;;;63.97;26.05;;;;;;;2.12;61.08;100762.00;4986006;28;20045;-90
2022/11/06 10:42:16;;;;;;;30.70;15.48;;;;;;;2.13;61.61;100770.91;5002510;28;20073;-91
2022/11/06 10:44:58;;;;;;;52.17;26.77;;;;;;;2.24;61.04;100770.19;5003553;28;20069;-91
2022/11/06 10:47:32;;;;;;;357.88;163.88;;;;;;;2.02;61.15;100727.44;4992395;28;20038;-92
2022/11/06 10:50:07;;;;;;;26.98;15.20;;;;;;;2.13;61.06;100741.25;4986900;28;20085;-91
2022/11/06 10:52:42;;;;;;;86.78;36.47;;;;;;;2.45;60.76;100769.78;4983177;28;20513;-91
2022/11/06 10:55:33;;;;;;;;;;;;;;;;;;;;;
2022/11/06 10:58:06;;;;;;;122.93;42.05;;;;;;;1.90;60.76;100671.75;5072486;28;20222;-92
2022/11/06 11:00:35;;;;;;;41.75;18.50;;;;;;;2.29;60.64;100744.19;5021893;28;20094;-89
2022/11/06 11:03:06;;;;;;;38.22;19.17;;;;;;;2.22;60.09;100721.00;5049003;28;20036;-93
2022/11/06 11:05:42;;;;;;;31.10;16.10;;;;;;;2.26;59.97;100741.13;5039669;28;20057;-91
2022/11/06 11:08:46;;;;;;;19.40;12.40;;;;;;;2.37;60.59;100772.75;5019444;28;20112;-89
2022/11/06 11:11:26;;;;;;;27.70;12.03;;;;;;;2.37;60.56;100769.22;4976008;28;20065;-90
2022/11/06 11:14:33;;;;;;;70.18;25.92;;;;;;;1.81;60.28;100658.53;5005382;28;20050;-90
2022/11/06 11:17:21;;;;;;;29.35;15.40;;;;;;;1.81;60.36;100680.13;4983510;28;20203;-93
2022/11/06 11:19:49;;;;;;;35.40;17.55;;;;;;;1.96;61.27;100725.63;4974525;28;20046;-92
2022/11/06 11:22:23;;;;;;;43.80;18.25;;;;;;;2.32;60.95;100756.41;4993087;28;20065;-91
2022/11/06 11:25:05;;;;;;;30.50;14.48;;;;;;;2.01;60.28;100674.53;4982540;28;20049;-91
2022/11/06 11:28:33;;;;;;;29.25;14.40;;;;;;;2.42;60.48;100718.09;5001553;28;20061;-92
2022/11/06 11:31:10;;;;;;;41.92;18.30;;;;;;;2.43;60.66;100744.88;4962607;28;20039;-90
2022/11/06 11:33:46;;;;;;;29.20;15.98;;;;;;;2.40;60.71;100737.22;5030751;28;20025;-88
2022/11/06 11:36:14;;;;;;;38.58;18.25;;;;;;;1.93;60.40;100639.78;5018146;28;20049;-91
2022/11/06 11:38:47;;;;;;;41.20;15.32;;;;;;;2.54;59.81;100708.19;5007695;28;20060;-90
2022/11/06 11:41:24;;;;;;;35.97;14.38;;;;;;;2.26;59.08;100650.19;5002140;28;20046;-90
2022/11/06 11:44:10;;;;;;;36.17;16.80;;;;;;;2.72;59.35;100724.41;5019171;28;20438;-93
2022/11/06 11:46:52;;;;;;;38.92;17.27;;;;;;;2.44;59.54;100678.22;5041169;28;20518;-89
2022/11/06 11:49:32;;;;;;;38.30;16.33;;;;;;;2.74;59.68;100737.66;5054766;28;20186;-89
2022/11/06 11:52:20;;;;;;;332.13;103.43;;;;;;;2.30;59.96;100677.56;5018587;28;20079;-90
2022/11/06 11:55:04;;;;;;;374.53;131.40;;;;;;;2.16;59.93;100673.38;5059252;28;20077;-91
2022/11/06 11:57:36;;;;;;;103.35;40.17;;;;;;;2.26;60.40;100709.56;5063923;28;20059;-91
2022/11/06 12:00:14;;;;;;;125.95;49.03;;;;;;;2.01;60.09;100638.66;5116193;28;20234;-88
2022/11/06 12:03:04;;;;;;;199.40;76.68;;;;;;;2.15;59.46;100648.22;5083754;28;20051;-89
2022/11/06 12:05:39;;;;;;;118.30;50.55;;;;;;;2.68;59.57;100738.56;5110809;28;20131;-88
2022/11/06 12:08:29;;;;;;;58.95;25.30;;;;;;;2.55;60.05;100723.34;5102775;28;20039;-89
2022/11/06 12:11:47;;;;;;;39.53;18.55;;;;;;;1.90;59.99;100615.94;5128231;28;20082;-88
2022/11/06 12:15:13;;;;;;;34.15;16.08;;;;;;;1.99;60.22;100620.00;5086639;28;20073;-90
2022/11/06 12:22:26;;;;;;;25.50;13.32;;;;;;;2.66;59.77;100713.69;5026314;28;20494;-92
2022/11/06 12:25:25;;;;;;;;;;;;;;;;;;;;;
2022/11/06 12:28:40;;;;;;;23.65;12.68;;;;;;;2.15;60.28;100650.13;5004854;28;20754;-89
2022/11/06 12:31:40;;;;;;;24.73;12.05;;;;;;;2.21;60.41;100682.41;4930610;29;20071;-92
2022/11/06 12:35:25;;;;;;;26.05;12.68;;;;;;;2.53;60.69;100707.38;5249973;22;20026;31
2022/11/06 12:44:48;;;;;;;48.17;15.70;;;;;;;2.05;60.87;100626.34;5984111;22;20054;-91
2022/11/06 12:47:44;;;;;;;37.22;16.67;;;;;;;1.85;60.63;100607.69;4986963;28;20120;-91
2022/11/06 12:53:38;;;;;;;27.98;14.27;;;;;;;2.63;60.73;100693.34;5015464;28;20054;-90
2022/11/06 13:04:20;;;;;;;26.00;12.40;;;;;;;2.35;60.85;100653.41;4951403;28;20042;-91
2022/11/06 13:07:28;;;;;;;27.50;12.80;;;;;;;2.69;60.70;100688.94;4953152;28;20035;-94
2022/11/06 13:22:44;;;;;;;30.98;14.57;;;;;;;2.20;61.12;100671.84;4992523;28;20043;-89
2022/11/06 13:25:25;;;;;;;29.85;15.90;;;;;;;2.25;61.56;100699.81;4992067;28;20046;-91
2022/11/06 13:28:05;;;;;;;29.40;16.63;;;;;;;2.01;61.79;100642.16;4982221;28;20810;-91
2022/11/06 13:30:36;;;;;;;34.28;16.85;;;;;;;1.85;61.76;100610.38;4972268;28;20104;-88
2022/11/06 13:33:13;;;;;;;41.17;18.80;;;;;;;2.07;61.54;100638.56;4989363;28;20073;-91
2022/11/06 13:35:43;;;;;;;41.17;19.83;;;;;;;2.42;62.12;100691.94;5005772;28;20498;-90
2022/11/06 13:38:21;;;;;;;28.65;14.88;;;;;;;2.10;61.66;100630.03;5004516;28;20080;-88
2022/11/06 13:40:52;;;;;;;31.77;16.05;;;;;;;2.29;61.26;100636.25;4992005;28;20790;-91
2022/11/06 13:43:32;;;;;;;53.67;18.98;;;;;;;2.57;61.21;100669.97;4975800;28;20038;-89
2022/11/06 13:46:31;;;;;;;76.38;30.10;;;;;;;2.39;60.79;100616.84;4955145;28;20073;-88
2022/11/06 13:49:37;;;;;;;34.33;17.42;;;;;;;2.67;60.86;100686.44;4986955;28;20034;-91
2022/11/06 13:52:13;;;;;;;26.60;14.10;;;;;;;1.96;61.45;100598.06;4966635;28;20038;-87
2022/11/06 13:55:07;;;;;;;29.58;16.92;;;;;;;2.57;61.69;100676.19;4964135;28;20038;-85
2022/11/06 13:57:54;;;;;;;29.58;15.43;;;;;;;2.43;61.61;100682.78;4991660;28;20073;-88
2022/11/06 14:00:22;;;;;;;29.53;14.03;;;;;;;1.89;62.02;100617.00;4975065;28;20426;-86
2022/11/06 14:03:38;;;;;;;25.17;12.82;;;;;;;2.35;62.38;100686.63;4983829;28;20348;-91
2022/11/06 14:06:32;;;;;;;18.75;10.80;;;;;;;2.07;62.21;100651.25;4978467;28;20054;-87
2022/11/06 14:09:21;;;;;;;22.77;12.77;;;;;;;1.79;62.86;100630.19;4975308;28;20050;-87
2022/11/06 14:11:59;;;;;;;24.67;12.88;;;;;;;1.59;62.81;100601.53;4950253;28;20042;-88
2022/11/06 14:14:33;;;;;;;26.33;13.18;;;;;;;1.62;62.82;100576.84;4992391;28;20074;-88
2022/11/06 14:17:16;;;;;;;30.58;14.82;;;;;;;1.79;63.32;100603.22;4991492;28;20546;-87
2022/11/06 14:19:44;;;;;;;32.95;14.32;;;;;;;2.30;62.28;100654.09;4985609;28;20077;-88
2022/11/06 14:22:31;;;;;;;34.10;12.48;;;;;;;2.32;62.05;100670.88;4991117;28;20050;-89
2022/11/06 14:24:58;;;;;;;30.90;13.68;;;;;;;1.72;62.40;100579.00;4959929;28;20500;-88
2022/11/06 14:27:53;;;;;;;35.38;13.82;;;;;;;2.25;62.36;100659.34;4974028;28;20050;-88
2022/11/06 14:30:30;;;;;;;27.13;12.93;;;;;;;2.33;62.50;100675.22;4959589;28;20474;-89
2022/11/06 14:33:30;;;;;;;35.38;14.60;;;;;;;1.80;62.17;100575.19;4971775;28;20042;-89
2022/11/06 14:35:57;;;;;;;29.42;13.48;;;;;;;2.06;62.17;100628.03;4995996;28;20046;-91
2022/11/06 14:38:30;;;;;;;23.65;12.10;;;;;;;2.32;62.29;100664.66;4982871;28;20535;-92
2022/11/06 14:40:57;;;;;;;21.17;11.43;;;;;;;1.87;62.58;100627.19;4993511;28;20045;-92
2022/11/06 14:43:29;;;;;;;44.72;21.92;;;;;;;2.13;63.01;100665.72;4976849;28;20038;-88
2022/11/06 14:46:19;;;;;;;24.67;13.68;;;;;;;1.73;62.97;100617.59;4980867;28;20044;-90
2022/11/06 14:48:50;;;;;;;29.63;15.27;;;;;;;1.73;62.76;100596.84;5002175;28;20038;-93
2022/11/06 14:51:27;;;;;;;23.08;12.57;;;;;;;1.71;62.72;100590.84;4980739;28;20757;-89
2022/11/06 14:53:59;;;;;;;32.90;16.63;;;;;;;2.10;63.53;100666.97;4978908;28;20047;-86
2022/11/06 14:56:34;;;;;;;32.97;15.40;;;;;;;2.02;65.53;100630.34;4989747;28;20101;-86
2022/11/06 14:59:06;;;;;;;29.67;13.63;;;;;;;2.09;62.93;100620.31;4974266;28;20048;-90
2022/11/06 15:01:36;;;;;;;29.63;13.93;;;;;;;2.01;62.87;100608.97;4963263;28;20034;-89
2022/11/06 15:04:22;;;;;;;26.13;13.25;;;;;;;1.53;63.15;100558.50;4975332;28;20762;-89
2022/11/06 15:06:54;;;;;;;22.27;11.82;;;;;;;1.87;63.26;100619.09;4996378;28;20061;-92
2022/11/06 15:09:25;;;;;;;34.47;15.68;;;;;;;2.25;63.33;100648.56;4966354;28;20110;-89
2022/11/06 15:11:59;;;;;;;31.17;16.33;;;;;;;1.64;63.22;100544.25;4941953;28;20039;-92
2022/11/06 15:14:28;;;;;;;31.13;14.60;;;;;;;2.37;63.05;100648.63;4949674;28;20145;-89
2022/11/06 15:17:14;;;;;;;36.08;16.25;;;;;;;1.77;63.03;100543.31;4950908;28;20049;-93
2022/11/06 15:20:07;;;;;;;29.20;14.50;;;;;;;2.34;62.58;100649.06;4975276;28;20027;-93
2022/11/06 15:26:40;;;;;;;29.42;14.77;;;;;;;1.46;63.53;100525.38;4981321;28;20207;-88
2022/11/06 15:29:19;;;;;;;40.40;15.57;;;;;;;2.10;63.74;100640.00;4965866;28;20105;-90
2022/11/06 15:31:51;;;;;;;36.75;14.55;;;;;;;1.52;63.62;100541.47;4960164;28;20100;-90
2022/11/06 15:34:39;;;;;;;36.35;14.73;;;;;;;2.06;63.24;100614.53;4949429;28;20069;-90
2022/11/06 15:37:13;;;;;;;28.65;15.23;;;;;;;2.17;63.51;100639.94;4978806;28;20062;-91
2022/11/06 15:39:51;;;;;;;30.60;15.10;;;;;;;1.82;63.46;100595.50;4966811;28;20035;-88
2022/11/06 15:42:22;;;;;;;32.95;15.90;;;;;;;2.11;63.77;100637.06;4983369;28;20050;-90
2022/11/06 15:45:04;;;;;;;29.38;15.25;;;;;;;1.90;63.37;100597.06;4940062;28;20053;-90
2022/11/06 15:47:49;;;;;;;;;;;;;;;;;;;;;
2022/11/06 15:50:44;;;;;;;31.63;13.95;;;;;;;1.95;63.04;100591.00;4964239;28;20054;-92
2022/11/06 15:53:39;;;;;;;22.83;12.77;;;;;;;2.00;63.59;100608.16;4977703;28;20427;-93
2022/11/06 15:56:08;;;;;;;28.73;13.48;;;;;;;2.00;63.91;100596.56;4963276;28;20039;-93
2022/11/06 15:58:36;;;;;;;23.23;11.68;;;;;;;1.73;63.55;100569.06;5003504;28;20037;-88
2022/11/06 16:01:05;;;;;;;31.50;12.02;;;;;;;1.76;63.53;100564.03;5000301;28;20050;-89
2022/11/06 16:03:54;;;;;;;24.35;13.38;;;;;;;2.02;63.96;100605.22;5012948;28;20081;-88
2022/11/06 16:06:21;;;;;;;28.08;14.20;;;;;;;2.03;63.41;100580.75;4978932;28;20050;-91
2022/11/06 16:08:56;;;;;;;26.08;12.98;;;;;;;2.05;63.32;100570.56;4965548;28;20034;-91
2022/11/06 16:11:23;;;;;;;29.35;13.43;;;;;;;2.01;62.75;100555.84;4987219;28;20057;-87
2022/11/06 16:13:50;;;;;;;30.50;14.05;;;;;;;1.95;62.73;100528.97;4968578;28;20042;-86
2022/11/06 16:16:44;;;;;;;36.97;12.97;;;;;;;2.36;62.85;100611.91;5012384;28;20121;-88
2022/11/06 16:19:33;;;;;;;29.10;12.15;;;;;;;2.02;63.29;100573.72;4992526;28;20038;-88
2022/11/06 16:22:10;;;;;;;22.13;12.07;;;;;;;2.08;63.91;100604.34;4980511;28;20143;-90
2022/11/06 16:24:46;;;;;;;26.42;12.80;;;;;;;1.60;63.78;100516.94;5017415;28;20034;-89
2022/11/06 16:27:15;;;;;;;20.83;12.25;;;;;;;1.50;63.88;100516.63;5001571;28;20145;-90
2022/11/06 16:29:47;;;;;;;28.10;13.10;;;;;;;1.63;64.31;100550.72;4996234;28;20128;-88
2022/11/06 16:32:22;;;;;;;27.27;13.10;;;;;;;1.75;64.57;100558.84;5007023;28;20037;-90
2022/11/06 16:34:54;;;;;;;25.48;13.88;;;;;;;1.80;64.70;100576.03;5001705;28;20054;-88
2022/11/06 16:37:28;;;;;;;32.40;13.38;;;;;;;1.96;64.86;100600.75;5031170;28;20073;-89
2022/11/06 16:39:58;;;;;;;25.25;13.48;;;;;;;1.60;64.82;100522.31;5012856;28;20685;-88
2022/11/06 16:42:34;;;;;;;23.92;13.10;;;;;;;1.92;64.50;100591.44;5020444;28;20033;-87
2022/11/06 16:45:19;;;;;;;26.05;13.20;;;;;;;1.73;64.51;100547.50;5022470;28;20050;-89
2022/11/06 16:48:15;;;;;;;55.25;22.20;;;;;;;2.17;64.54;100592.19;5004242;28;20049;-88
2022/11/06 16:50:53;;;;;;;23.98;11.65;;;;;;;2.04;64.29;100605.84;5015636;28;20054;-91
2022/11/06 16:53:47;;;;;;;23.40;13.70;;;;;;;1.87;64.50;100573.25;4989886;28;20096;-87
2022/11/06 16:56:39;;;;;;;25.00;12.52;;;;;;;1.99;64.99;100593.03;5007299;28;20042;-88
2022/11/06 16:59:15;;;;;;;;;;;;;;;2.05;64.83;100593.97;5002311;28;20127;-89
2022/11/06 17:01:51;;;;;;;23.45;13.00;;;;;;;1.71;65.11;100571.97;4986123;28;20008;-93
2022/11/06 17:04:25;;;;;;;26.58;13.90;;;;;;;1.40;65.26;100527.09;4982484;28;20068;-88
2022/11/06 17:06:57;;;;;;;29.45;14.38;;;;;;;1.39;65.39;100507.44;4977927;28;20041;-88
2022/11/06 17:09:32;;;;;;;30.65;14.88;;;;;;;1.61;65.41;100528.53;4981329;28;20040;-91
2022/11/06 17:12:02;;;;;;;32.75;15.05;;;;;;;1.57;64.90;100495.00;4999679;28;20070;-88
2022/11/06 17:14:31;;;;;;;34.45;14.88;;;;;;;1.36;65.57;100489.00;4983582;28;20152;-89
2022/11/06 17:17:03;;;;;;;28.52;14.20;;;;;;;1.60;65.49;100533.09;5010503;28;20104;-88
2022/11/06 17:19:30;;;;;;;27.95;14.07;;;;;;;1.89;65.48;100573.88;5011897;28;20534;-88
2022/11/06 17:22:04;;;;;;;36.17;14.70;;;;;;;1.95;64.87;100561.34;5000597;28;20101;-90
2022/11/06 17:24:30;;;;;;;28.42;13.55;;;;;;;1.87;65.23;100554.38;4972630;28;20727;-86
2022/11/06 17:26:57;;;;;;;28.83;14.82;;;;;;;1.72;65.10;100497.31;4992500;28;20800;-88
2022/11/06 17:29:24;;;;;;;26.98;14.15;;;;;;;2.00;64.95;100556.91;5003908;28;20068;-89
2022/11/06 17:31:52;;;;;;;28.55;13.95;;;;;;;2.13;65.30;100591.00;5000600;28;20561;-87
2022/11/06 17:34:18;;;;;;;26.13;13.38;;;;;;;1.55;65.35;100519.47;4980060;28;20056;-87
2022/11/06 17:36:45;;;;;;;27.35;14.38;;;;;;;1.98;65.48;100569.78;4978227;28;20045;-87
2022/11/06 17:39:17;;;;;;;27.60;15.07;;;;;;;2.07;65.01;100556.84;4977776;28;20037;-90
2022/11/06 17:41:46;;;;;;;28.00;12.52;;;;;;;2.10;64.75;100568.00;4963645;28;20050;-88
2022/11/06 17:44:13;;;;;;;30.92;15.32;;;;;;;1.98;64.68;100531.22;5005258;28;20034;-88
2022/11/06 17:46:45;;;;;;;28.88;14.30;;;;;;;2.02;64.54;100537.81;4983289;28;20050;-90
2022/11/06 17:49:24;;;;;;;30.42;14.60;;;;;;;1.84;64.80;100480.16;4958137;28;20141;-91
2022/11/06 17:52:02;;;;;;;28.52;14.25;;;;;;;2.06;64.40;100501.25;4975093;28;20056;-87
2022/11/06 17:54:33;;;;;;;28.75;14.32;;;;;;;2.34;64.31;100560.84;4989955;28;20101;-87
2022/11/06 17:57:03;;;;;;;31.35;15.23;;;;;;;2.15;64.33;100515.22;4989338;28;20562;-87
2022/11/06 17:59:31;;;;;;;35.95;16.02;;;;;;;2.07;64.43;100492.09;5002550;28;20531;-86
2022/11/06 18:01:58;;;;;;;31.73;15.27;;;;;;;2.40;63.77;100529.41;5016338;28;20041;-89
2022/11/06 18:04:29;;;;;;;30.58;16.17;;;;;;;1.92;64.59;100476.34;4982491;28;20046;-88
2022/11/06 18:07:03;;;;;;;36.08;15.98;;;;;;;2.32;64.09;100556.75;4998407;28;20046;-91
2022/11/06 18:09:39;;;;;;;38.08;16.98;;;;;;;2.40;64.35;100542.09;4983412;28;20042;-91
2022/11/06 18:12:36;;;;;;;34.00;16.38;;;;;;;2.56;64.28;100569.25;4991005;28;20049;-92
2022/11/06 18:15:05;;;;;;;40.50;18.35;;;;;;;2.27;64.57;100537.69;4998187;28;20502;-88
2022/11/06 18:41:16;;;;;;;40.47;19.20;;;;;;;2.49;64.34;100541.53;5140291;23;20130;-91
2022/11/06 18:44:08;;;;;;;47.42;18.02;;;;;;;2.57;64.18;100538.50;4944474;29;20163;-91
2022/11/06 18:47:18;;;;;;;;;;;;;;;2.76;64.13;100565.47;5131012;23;20065;-92
2022/11/06 18:53:34;;;;;;;34.17;16.23;;;;;;;2.13;64.53;100484.97;4989254;28;20042;-90
2022/11/06 18:56:00;;;;;;;36.80;16.00;;;;;;;2.21;64.41;100477.38;4932509;28;20050;-91
2022/11/06 18:58:31;;;;;;;32.60;13.88;;;;;;;2.58;64.43;100566.31;4960095;28;20073;-91
2022/11/06 19:01:04;;;;;;;33.50;14.48;;;;;;;2.44;64.49;100513.59;4942997;28;20042;-91
2022/11/06 19:03:33;;;;;;;37.05;13.77;;;;;;;2.44;64.48;100524.38;4957970;28;20051;-92
2022/11/06 19:05:59;;;;;;;34.15;14.95;;;;;;;2.25;64.76;100491.22;4958217;28;20165;-88
2022/11/06 19:08:27;;;;;;;30.88;13.07;;;;;;;2.27;64.86;100487.25;4970633;28;20051;-91
2022/11/06 19:10:55;;;;;;;30.80;13.20;;;;;;;2.51;64.58;100525.09;4931566;28;20141;-90
2022/11/06 19:13:22;;;;;;;30.60;13.27;;;;;;;2.31;64.90;100503.81;4927374;28;20130;-92
2022/11/06 19:15:52;;;;;;;33.95;13.88;;;;;;;2.37;65.29;100519.09;4960441;28;20046;-90
2022/11/06 19:18:19;;;;;;;34.20;13.88;;;;;;;2.53;65.12;100550.81;4931529;28;20051;-91
2022/11/06 19:20:48;;;;;;;31.15;12.20;;;;;;;2.20;65.16;100497.31;4949740;28;20054;-90